Terminal Aerodrome Forecast
Issued by NWS

Home | Current Version | Previous Version | Text Only | Print | Product List | Glossary On
Versions: 1 2 3 4 5 6 7 8 9 10 11 12 13 14
464
FTUS42 KMLB 271740
TAFTIX
TAF
KTIX 271740Z 2718/2818 16016G30KT P6SM VCSH BKN020 OVC040
     FM272100 15014G18KT P6SM VCSH SCT025 BKN060
     FM280400 18008KT P6SM BKN020 BKN120
     FM281400 17015G22KT P6SM VCSH SCT015 SCT025 BKN035=

USA.gov is the U.S. government's official web portal to all federal, state and local government web resources and services.